Time;durP1;ratioP1;P1;durP2;ratioP2;P2;SDS_P1;SDS_P2;PMS_P1;PMS_P2;Temp;Humidity;BMP_temperature;BMP_pressure;BME280_temperature;BME280_humidity;BME280_pressure;Samples;Min_cycle;Max_cycle;Signal;HPM_P1;HPM_P2
2022/09/14 00:00:48;;;;;;;4.82;3.05;;;18.00;95.60;;;;;;5066288;28;20198;-89
2022/09/14 00:03:15;;;;;;;4.25;3.38;;;18.00;95.60;;;;;;5067834;28;20204;-89
2022/09/14 00:05:43;;;;;;;5.50;3.30;;;18.00;95.80;;;;;;5065030;28;21496;-89
2022/09/14 00:08:10;;;;;;;3.55;3.22;;;17.90;96.00;;;;;;5067249;28;20255;-88
2022/09/14 00:10:40;;;;;;;6.82;3.65;;;17.80;96.30;;;;;;5066456;28;20201;-89
2022/09/14 00:13:07;;;;;;;4.13;3.00;;;17.90;95.90;;;;;;5059266;28;20576;-89
2022/09/14 00:15:36;;;;;;;7.50;3.70;;;17.80;96.00;;;;;;5069275;28;20568;-88
2022/09/14 00:18:03;;;;;;;5.13;3.40;;;17.70;96.30;;;;;;5073087;28;20201;-88
2022/09/14 00:20:30;;;;;;;4.20;3.30;;;17.70;96.80;;;;;;5069387;28;20213;-89
2022/09/14 00:22:58;;;;;;;5.38;3.38;;;17.60;97.10;;;;;;5073516;28;20205;-89
2022/09/14 00:25:26;;;;;;;4.78;3.35;;;17.70;97.20;;;;;;5067341;28;20565;-89
2022/09/14 00:27:53;;;;;;;4.35;3.22;;;17.60;97.20;;;;;;5069847;28;20618;-89
2022/09/14 00:30:19;;;;;;;6.50;3.45;;;17.60;97.40;;;;;;5071375;28;20208;-89
2022/09/14 00:32:46;;;;;;;6.68;3.53;;;17.50;97.50;;;;;;5071275;28;20197;-89
2022/09/14 00:35:19;;;;;;;9.25;3.30;;;17.50;97.50;;;;;;5061626;28;20213;-88
2022/09/14 00:37:49;;;;;;;4.68;3.20;;;17.40;97.50;;;;;;5069939;28;20201;-89
2022/09/14 00:40:18;;;;;;;5.70;3.70;;;17.40;97.80;;;;;;5061059;28;20217;-89
2022/09/14 00:42:45;;;;;;;6.50;3.30;;;17.40;97.70;;;;;;5067064;28;20212;-89
2022/09/14 00:45:18;;;;;;;4.47;3.20;;;17.40;97.50;;;;;;5066025;28;20564;-89
2022/09/14 00:47:47;;;;;;;4.28;2.90;;;17.50;97.50;;;;;;5065222;28;20206;-89
2022/09/14 00:50:14;;;;;;;8.88;3.38;;;17.70;97.60;;;;;;5066897;28;20236;-89
2022/09/14 00:52:44;;;;;;;6.95;3.13;;;17.70;97.30;;;;;;5064115;28;20206;-89
2022/09/14 00:55:14;;;;;;;3.38;3.08;;;17.60;97.50;;;;;;5063494;28;20212;-89
2022/09/14 00:57:46;;;;;;;5.15;3.17;;;17.60;97.50;;;;;;5064503;28;20545;-89
2022/09/14 01:00:23;;;;;;;6.28;3.42;;;17.50;97.50;;;;;;5062725;28;20216;-89
2022/09/14 01:02:50;;;;;;;5.03;3.00;;;17.60;97.50;;;;;;5066830;28;20208;-88
2022/09/14 01:05:18;;;;;;;3.90;3.10;;;17.70;97.50;;;;;;5064627;28;20220;-88
2022/09/14 01:08:07;;;;;;;4.82;3.20;;;17.80;97.10;;;;;;5058286;28;20217;-89
2022/09/14 01:10:45;;;;;;;5.20;3.15;;;17.80;96.90;;;;;;5070913;28;20275;-89
2022/09/14 01:13:27;;;;;;;6.85;3.00;;;17.70;97.00;;;;;;5053989;28;20209;-89
2022/09/14 01:16:03;;;;;;;6.47;3.08;;;17.80;97.00;;;;;;5063561;28;20233;-89
2022/09/14 01:18:36;;;;;;;5.03;3.22;;;17.70;97.30;;;;;;5066649;28;20205;-89
2022/09/14 01:21:10;;;;;;;3.80;3.10;;;17.60;97.50;;;;;;5063784;28;20536;-89
2022/09/14 01:23:46;;;;;;;4.80;3.15;;;17.50;97.50;;;;;;5068310;28;20201;-89
2022/09/14 01:26:59;;;;;;;3.17;2.85;;;17.50;97.50;;;;;;5071935;28;20201;-89
2022/09/14 01:29:33;;;;;;;4.90;2.65;;;17.50;97.50;;;;;;5058109;28;20200;-89
2022/09/14 01:32:07;;;;;;;4.50;3.00;;;17.50;97.50;;;;;;5068279;28;20205;-89
2022/09/14 01:34:39;;;;;;;4.05;3.00;;;17.60;97.80;;;;;;5062265;28;20211;-89
2022/09/14 01:37:12;;;;;;;7.22;3.40;;;17.60;97.50;;;;;;5067291;28;20197;-89
2022/09/14 01:39:42;;;;;;;6.30;3.03;;;17.60;97.50;;;;;;5061014;28;20569;-89
2022/09/14 01:42:12;;;;;;;3.35;2.72;;;17.60;97.50;;;;;;5071410;28;20577;-88
2022/09/14 01:44:45;;;;;;;5.03;2.80;;;17.60;97.50;;;;;;5062762;28;20209;-89
2022/09/14 01:47:16;;;;;;;6.00;2.97;;;17.60;97.50;;;;;;5066662;28;20205;-89
2022/09/14 01:49:51;;;;;;;3.20;2.90;;;17.60;97.50;;;;;;5074412;28;20682;-89
2022/09/14 01:52:23;;;;;;;4.30;2.75;;;17.60;97.50;;;;;;5064462;28;20648;-89
2022/09/14 01:54:52;;;;;;;2.83;2.45;;;17.60;97.50;;;;;;5068354;28;20634;-89
2022/09/14 01:57:22;;;;;;;3.80;2.80;;;17.60;97.50;;;;;;5061106;28;20272;-89
2022/09/14 01:59:54;;;;;;;3.60;2.80;;;17.60;97.50;;;;;;5068291;28;20710;-89
2022/09/14 02:02:28;;;;;;;3.30;2.75;;;17.50;97.50;;;;;;5069939;28;20212;-89
2022/09/14 02:05:03;;;;;;;3.28;2.70;;;17.60;97.50;;;;;;5046976;28;20559;-89
2022/09/14 02:07:30;;;;;;;4.57;2.70;;;17.50;97.50;;;;;;5071286;28;20205;-89
2022/09/14 02:09:58;;;;;;;3.30;2.95;;;17.50;97.50;;;;;;5063419;28;20661;-89
2022/09/14 02:12:25;;;;;;;5.35;3.03;;;17.50;97.50;;;;;;5065240;28;20232;-88
2022/09/14 02:14:54;;;;;;;6.43;3.05;;;17.40;97.90;;;;;;5070015;28;20198;-89
2022/09/14 02:17:22;;;;;;;3.00;2.70;;;17.40;98.20;;;;;;5067925;28;20205;-89
2022/09/14 02:19:54;;;;;;;3.00;2.70;;;17.30;98.50;;;;;;5069582;28;20232;-89
2022/09/14 02:22:21;;;;;;;3.22;2.80;;;17.30;98.50;;;;;;5059362;28;20564;-88
2022/09/14 02:24:49;;;;;;;5.85;2.90;;;17.30;98.10;;;;;;5071725;28;20231;-89
2022/09/14 02:27:16;;;;;;;2.78;2.58;;;17.30;97.90;;;;;;5069871;28;20201;-89
2022/09/14 02:29:43;;;;;;;3.10;2.78;;;17.30;97.50;;;;;;5070642;28;20197;-89
2022/09/14 02:32:21;;;;;;;6.05;2.60;;;17.30;97.90;;;;;;5073378;28;20582;-89
2022/09/14 02:34:56;;;;;;;2.97;2.67;;;17.30;97.90;;;;;;5064366;28;20216;-89
2022/09/14 02:37:30;;;;;;;5.30;2.50;;;17.30;98.10;;;;;;5068954;28;20197;-89
2022/09/14 02:40:04;;;;;;;3.90;2.60;;;17.30;98.10;;;;;;5073188;28;20737;-89
2022/09/14 02:42:37;;;;;;;4.60;2.35;;;17.30;98.10;;;;;;5072396;28;20201;-89
2022/09/14 02:45:21;;;;;;;2.25;2.05;;;17.30;98.10;;;;;;5070748;28;20198;-89
2022/09/14 02:47:55;;;;;;;3.83;2.60;;;17.30;98.10;;;;;;5063531;28;20539;-89
2022/09/14 02:50:32;;;;;;;3.08;2.35;;;17.30;98.10;;;;;;5073054;28;20204;-89
2022/09/14 02:53:07;;;;;;;2.60;2.40;;;17.30;98.10;;;;;;5070741;28;20211;-89
2022/09/14 02:55:38;;;;;;;2.45;2.25;;;17.30;98.20;;;;;;5064781;28;20212;-88
2022/09/14 02:58:07;;;;;;;3.08;2.45;;;17.30;98.20;;;;;;5069192;28;20206;-89
2022/09/14 03:00:36;;;;;;;2.60;2.10;;;17.30;98.30;;;;;;5070480;28;20228;-89
2022/09/14 03:03:06;;;;;;;3.85;2.13;;;17.20;98.30;;;;;;5068990;28;20193;-89
2022/09/14 03:05:33;;;;;;;6.50;2.47;;;17.30;98.40;;;;;;5073274;28;20221;-89
2022/09/14 03:08:00;;;;;;;4.53;2.25;;;17.40;97.90;;;;;;5070789;28;20231;-89
2022/09/14 03:10:27;;;;;;;3.25;2.20;;;17.50;97.70;;;;;;5069694;28;20660;-89
2022/09/14 03:12:54;;;;;;;3.83;2.60;;;17.50;97.50;;;;;;5068439;28;20242;-89
2022/09/14 03:15:21;;;;;;;3.25;2.08;;;17.40;97.50;;;;;;5075436;28;20211;-88
2022/09/14 03:17:50;;;;;;;2.65;2.17;;;17.40;97.50;;;;;;5074629;28;20292;-89
2022/09/14 03:20:23;;;;;;;2.30;2.10;;;17.30;97.90;;;;;;5073108;28;20209;-89
2022/09/14 03:22:49;;;;;;;3.30;2.53;;;17.30;98.10;;;;;;5066172;28;20198;-89
2022/09/14 03:25:17;;;;;;;2.00;1.90;;;17.40;98.10;;;;;;5065308;28;20201;-89
2022/09/14 03:27:49;;;;;;;5.32;2.47;;;17.40;98.10;;;;;;5070122;28;20261;-89
2022/09/14 03:30:16;;;;;;;4.32;2.10;;;17.30;98.20;;;;;;5064013;28;20209;-89
2022/09/14 03:32:43;;;;;;;4.20;2.47;;;17.30;98.30;;;;;;5069683;28;20201;-89
2022/09/14 03:35:10;;;;;;;3.72;2.13;;;17.20;98.50;;;;;;5072565;28;20249;-88
2022/09/14 03:37:46;;;;;;;3.08;2.10;;;17.20;98.60;;;;;;5066673;28;20252;-89
2022/09/14 03:40:14;;;;;;;3.25;2.20;;;17.10;98.90;;;;;;5069914;28;20217;-89
2022/09/14 03:42:42;;;;;;;2.42;2.20;;;17.10;99.00;;;;;;5068852;28;20213;-89
2022/09/14 03:45:10;;;;;;;5.13;2.47;;;17.10;99.00;;;;;;5070060;28;20197;-89
2022/09/14 03:47:37;;;;;;;6.55;2.25;;;17.20;99.00;;;;;;5069915;28;20204;-88
2022/09/14 03:50:05;;;;;;;2.17;1.98;;;17.30;98.90;;;;;;5073426;28;20220;-88
2022/09/14 03:52:37;;;;;;;6.75;2.40;;;17.40;98.70;;;;;;5069324;28;20199;-88
2022/09/14 03:55:08;;;;;;;3.65;2.40;;;17.40;98.30;;;;;;5074347;28;20288;-88
2022/09/14 03:57:35;;;;;;;2.63;2.00;;;17.50;98.10;;;;;;5075374;28;20197;-88
2022/09/14 04:00:03;;;;;;;5.30;2.20;;;17.50;98.00;;;;;;5065916;28;20221;-88
2022/09/14 04:02:31;;;;;;;3.60;2.40;;;17.50;97.80;;;;;;5061695;28;20209;-89
2022/09/14 04:04:58;;;;;;;5.47;2.15;;;17.40;97.50;;;;;;5070376;28;20687;-88
2022/09/14 04:07:24;;;;;;;3.28;2.42;;;17.30;97.40;;;;;;5071858;28;20205;-89
2022/09/14 04:09:51;;;;;;;2.58;2.30;;;17.30;97.70;;;;;;5067140;28;20201;-89
2022/09/14 04:12:19;;;;;;;7.55;2.20;;;17.40;97.80;;;;;;5058492;28;20225;-89
2022/09/14 04:14:49;;;;;;;2.60;2.25;;;17.40;97.50;;;;;;5067224;28;20206;-88
2022/09/14 04:17:16;;;;;;;29.50;26.30;;;17.30;97.90;;;;;;5066007;28;20204;-89
2022/09/14 04:19:43;;;;;;;3.20;2.53;;;17.40;97.70;;;;;;5072568;28;20584;-88
2022/09/14 04:22:10;;;;;;;11.85;9.32;;;17.40;97.90;;;;;;5061968;28;20327;-88
2022/09/14 04:24:37;;;;;;;44.42;38.45;;;17.40;97.50;;;;;;5066449;28;20284;-90
2022/09/14 04:27:04;;;;;;;5.53;4.18;;;17.50;97.80;;;;;;5072192;28;20201;-88
2022/09/14 04:29:32;;;;;;;13.48;10.27;;;17.70;96.90;;;;;;5057743;28;20684;-88
2022/09/14 04:31:59;;;;;;;3.50;2.60;;;17.80;96.90;;;;;;5070608;28;20204;-89
2022/09/14 04:34:26;;;;;;;76.03;15.13;;;17.80;97.30;;;;;;5069690;28;20672;-89
2022/09/14 04:36:53;;;;;;;3.80;2.90;;;17.80;96.90;;;;;;5066796;28;20202;-88
2022/09/14 04:39:25;;;;;;;5.05;3.28;;;17.90;96.80;;;;;;5068771;28;20201;-87
2022/09/14 04:41:52;;;;;;;7.88;4.90;;;17.80;97.30;;;;;;5064624;28;20198;-89
2022/09/14 04:44:19;;;;;;;5.30;3.85;;;17.80;97.60;;;;;;5047779;28;20254;-89
2022/09/14 04:46:47;;;;;;;7.65;2.55;;;17.80;97.60;;;;;;5065269;28;20651;-89
2022/09/14 04:49:15;;;;;;;5.13;1.92;;;17.90;97.20;;;;;;5059574;28;20210;-88
2022/09/14 04:51:42;;;;;;;5.75;2.10;;;17.90;97.20;;;;;;5060723;28;20292;-88
2022/09/14 04:54:13;;;;;;;2.55;1.80;;;17.90;97.60;;;;;;5065414;28;20680;-89
2022/09/14 04:56:43;;;;;;;2.83;2.20;;;17.80;97.50;;;;;;5068297;28;20206;-89
2022/09/14 04:59:11;;;;;;;2.55;1.70;;;17.80;97.60;;;;;;5057398;28;20205;-88
2022/09/14 05:01:39;;;;;;;1.90;1.70;;;17.80;97.30;;;;;;5065825;28;20244;-88
2022/09/14 05:04:08;;;;;;;4.22;1.90;;;17.80;97.60;;;;;;5063548;28;20205;-88
2022/09/14 05:06:38;;;;;;;3.13;1.92;;;17.80;97.60;;;;;;5053342;28;20198;-89
2022/09/14 05:09:11;;;;;;;3.85;2.00;;;17.90;97.50;;;;;;5063363;28;20198;-88
2022/09/14 05:11:39;;;;;;;3.47;1.92;;;17.90;97.60;;;;;;5065185;28;20198;-88
2022/09/14 05:14:07;;;;;;;4.70;1.90;;;17.90;97.60;;;;;;5067887;28;20283;-89
2022/09/14 05:16:43;;;;;;;8.95;3.22;;;17.90;97.30;;;;;;5067632;28;20206;-88
2022/09/14 05:19:14;;;;;;;4.03;2.15;;;17.90;97.20;;;;;;5064670;28;20193;-88
2022/09/14 05:21:41;;;;;;;3.20;1.98;;;17.90;97.40;;;;;;5062344;28;20225;-87
2022/09/14 05:24:13;;;;;;;4.35;2.75;;;17.90;97.40;;;;;;5058616;28;20560;-88
2022/09/14 05:26:40;;;;;;;4.10;2.17;;;17.90;97.40;;;;;;5061538;28;20702;-88
2022/09/14 05:29:07;;;;;;;2.47;1.80;;;17.90;97.00;;;;;;5067900;28;20193;-88
2022/09/14 05:31:34;;;;;;;3.30;2.00;;;18.00;96.70;;;;;;5067940;28;20197;-89
2022/09/14 05:34:01;;;;;;;4.13;1.98;;;18.00;96.90;;;;;;5068423;28;20201;-89
2022/09/14 05:36:29;;;;;;;2.60;1.77;;;18.00;96.80;;;;;;5061475;28;20193;-88
2022/09/14 05:38:57;;;;;;;5.47;2.10;;;18.00;96.60;;;;;;5069314;28;20837;-87
2022/09/14 05:41:24;;;;;;;1.90;1.80;;;18.10;96.50;;;;;;5075449;28;20248;-87
2022/09/14 05:43:51;;;;;;;5.18;1.92;;;18.20;96.40;;;;;;5073083;28;20674;-89
2022/09/14 05:46:19;;;;;;;2.78;1.83;;;18.20;96.20;;;;;;5065177;28;20323;-88
2022/09/14 05:48:46;;;;;;;3.45;1.95;;;18.40;96.00;;;;;;5064926;28;20619;-89
2022/09/14 05:51:15;;;;;;;4.93;1.98;;;18.50;95.60;;;;;;5056717;28;20288;-89
2022/09/14 05:53:48;;;;;;;6.32;1.95;;;18.50;95.50;;;;;;5062106;28;20211;-88
2022/09/14 05:56:15;;;;;;;6.75;2.05;;;18.70;95.20;;;;;;5059564;28;20190;-88
2022/09/14 05:58:42;;;;;;;3.30;2.33;;;18.80;95.10;;;;;;5059510;28;20198;-90
2022/09/14 06:01:10;;;;;;;6.68;2.20;;;18.80;94.70;;;;;;5063766;28;20228;-89
2022/09/14 06:03:38;;;;;;;3.72;2.00;;;18.90;94.50;;;;;;5069073;28;20198;-89
2022/09/14 06:06:06;;;;;;;3.65;2.00;;;18.90;94.30;;;;;;5059754;28;20232;-89
2022/09/14 06:08:33;;;;;;;4.68;2.05;;;18.90;94.00;;;;;;5063389;28;20643;-86
2022/09/14 06:11:08;;;;;;;3.35;1.88;;;19.00;94.00;;;;;;5068022;28;20209;-85
2022/09/14 06:13:35;;;;;;;2.08;1.90;;;19.00;93.80;;;;;;5059476;28;20220;-86
2022/09/14 06:16:09;;;;;;;3.05;2.00;;;19.10;93.60;;;;;;5069969;28;20594;-86
2022/09/14 06:18:37;;;;;;;5.80;2.00;;;19.10;93.50;;;;;;5057912;28;20216;-86
2022/09/14 06:21:08;;;;;;;4.95;2.00;;;19.20;93.50;;;;;;5057248;28;20225;-87
2022/09/14 06:23:36;;;;;;;4.72;1.95;;;19.20;93.40;;;;;;5068924;28;20201;-87
2022/09/14 06:26:05;;;;;;;3.53;2.00;;;19.20;93.40;;;;;;5076622;28;20568;-87
2022/09/14 06:28:33;;;;;;;4.00;2.22;;;19.20;93.10;;;;;;5070877;28;20209;-87
2022/09/14 06:31:02;;;;;;;5.60;2.10;;;19.30;93.20;;;;;;5063978;28;20268;-87
2022/09/14 06:33:29;;;;;;;8.45;2.65;;;19.30;93.60;;;;;;5071206;28;20197;-87
2022/09/14 06:35:56;;;;;;;3.85;2.42;;;19.40;93.90;;;;;;5083157;28;20629;-87
2022/09/14 06:38:23;;;;;;;5.00;2.13;;;19.40;93.70;;;;;;5075908;28;20254;-87
2022/09/14 06:41:11;;;;;;;5.45;2.33;;;19.40;94.00;;;;;;5067333;28;20217;-87
2022/09/14 06:43:39;;;;;;;5.03;2.30;;;19.40;94.00;;;;;;5064460;28;20619;-88
2022/09/14 06:46:09;;;;;;;5.75;2.20;;;19.40;94.00;;;;;;5072277;28;20198;-87
2022/09/14 06:48:38;;;;;;;4.45;2.03;;;19.60;93.80;;;;;;5067821;28;20201;-86
2022/09/14 06:51:12;;;;;;;8.32;1.95;;;19.60;93.60;;;;;;5076460;28;20197;-87
2022/09/14 06:53:43;;;;;;;5.20;2.17;;;19.60;93.60;;;;;;5073727;28;20220;-86
2022/09/14 06:56:12;;;;;;;4.60;1.90;;;19.70;93.40;;;;;;5071550;28;20225;-86
2022/09/14 06:58:39;;;;;;;5.45;2.35;;;19.70;93.70;;;;;;5071463;28;20208;-86
2022/09/14 07:01:08;;;;;;;5.68;2.38;;;19.60;94.20;;;;;;5073206;28;20232;-86
2022/09/14 07:03:36;;;;;;;5.60;2.05;;;19.60;94.50;;;;;;5068646;28;20205;-86
2022/09/14 07:06:05;;;;;;;5.70;2.30;;;19.60;95.10;;;;;;5070626;28;20283;-85
2022/09/14 07:08:33;;;;;;;4.03;2.10;;;19.60;95.30;;;;;;5070879;28;20259;-85
2022/09/14 07:11:00;;;;;;;5.50;2.00;;;19.60;95.30;;;;;;5075621;28;20197;-85
2022/09/14 07:13:33;;;;;;;4.35;2.00;;;19.70;95.50;;;;;;5073634;28;20210;-87
2022/09/14 07:16:02;;;;;;;5.25;2.22;;;19.70;95.60;;;;;;5071974;28;20209;-86
2022/09/14 07:18:52;;;;;;;4.13;2.03;;;19.70;95.60;;;;;;5073285;28;20198;-87
2022/09/14 07:21:20;;;;;;;5.57;2.80;;;19.80;95.40;;;;;;5073450;28;20229;-87
2022/09/14 07:23:48;;;;;;;2.85;1.95;;;19.80;95.60;;;;;;5052561;28;20198;-87
2022/09/14 07:26:16;;;;;;;4.03;2.08;;;19.80;95.50;;;;;;5067868;28;20200;-89
2022/09/14 07:28:53;;;;;;;5.22;2.17;;;19.80;95.50;;;;;;5074306;28;20205;-87
2022/09/14 07:31:23;;;;;;;4.63;2.15;;;19.90;95.40;;;;;;5069534;28;20203;-87
2022/09/14 07:33:53;;;;;;;2.88;2.00;;;20.00;95.40;;;;;;5065178;28;20197;-88
2022/09/14 07:36:21;;;;;;;4.53;2.20;;;20.10;95.30;;;;;;5075557;28;20219;-87
2022/09/14 07:38:48;;;;;;;5.93;1.80;;;20.10;95.00;;;;;;5076825;28;20211;-86
2022/09/14 07:41:15;;;;;;;4.45;2.05;;;20.30;94.50;;;;;;5075136;28;20217;-88
2022/09/14 07:43:42;;;;;;;5.00;1.95;;;20.40;94.20;;;;;;5072793;28;20651;-87
2022/09/14 07:46:10;;;;;;;6.82;2.40;;;20.40;93.30;;;;;;5064747;28;20198;-90
2022/09/14 07:48:37;;;;;;;3.65;2.35;;;20.50;93.20;;;;;;5065580;28;20213;-89
2022/09/14 07:51:06;;;;;;;2.00;1.70;;;20.60;93.10;;;;;;5068395;28;20202;-89
2022/09/14 07:53:37;;;;;;;4.07;1.83;;;20.70;92.80;;;;;;5064157;28;20200;-90
2022/09/14 07:56:03;;;;;;;4.38;2.30;;;20.80;92.60;;;;;;5068292;28;20213;-90
2022/09/14 07:58:31;;;;;;;5.15;2.20;;;21.00;92.20;;;;;;5071508;28;20578;-88
2022/09/14 08:00:59;;;;;;;6.00;2.10;;;21.30;91.50;;;;;;5055215;28;20278;-89
2022/09/14 08:03:33;;;;;;;4.80;2.00;;;21.60;90.60;;;;;;5070549;28;20202;-88
2022/09/14 08:06:01;;;;;;;4.53;2.42;;;22.00;89.20;;;;;;5073979;28;20304;-88
2022/09/14 08:08:29;;;;;;;2.92;1.90;;;22.20;85.10;;;;;;5070759;28;20563;-88
2022/09/14 08:10:58;;;;;;;6.53;2.05;;;22.60;82.70;;;;;;5076344;28;20201;-84
2022/09/14 08:13:24;;;;;;;4.47;2.03;;;22.80;81.80;;;;;;5065560;28;20212;-86
2022/09/14 08:15:51;;;;;;;3.75;1.83;;;23.00;76.40;;;;;;5071420;28;20206;-85
2022/09/14 08:18:18;;;;;;;5.10;2.00;;;23.10;71.00;;;;;;5068693;28;20217;-86
2022/09/14 08:20:47;;;;;;;3.13;1.70;;;23.30;71.30;;;;;;5054654;28;20562;-83
2022/09/14 08:23:13;;;;;;;3.05;1.90;;;23.60;69.80;;;;;;5072346;28;20205;-84
2022/09/14 08:25:40;;;;;;;4.47;1.90;;;23.80;64.90;;;;;;5075062;28;20202;-86
2022/09/14 08:28:07;;;;;;;7.40;2.20;;;23.90;65.00;;;;;;5078461;28;20197;-84
2022/09/14 08:30:34;;;;;;;5.00;1.95;;;24.00;59.60;;;;;;5076126;28;20194;-84
2022/09/14 08:33:01;;;;;;;5.75;2.10;;;24.00;59.50;;;;;;5079093;28;20194;-84
2022/09/14 08:35:27;;;;;;;4.68;1.90;;;23.90;59.90;;;;;;5076297;28;20205;-85
2022/09/14 08:37:55;;;;;;;4.65;2.03;;;23.90;59.50;;;;;;5076229;28;20205;-83
2022/09/14 08:40:22;;;;;;;5.00;1.95;;;24.00;59.70;;;;;;5073623;28;20549;-81
2022/09/14 08:42:51;;;;;;;4.90;1.95;;;24.10;59.60;;;;;;5067401;28;20609;-84
2022/09/14 08:45:18;;;;;;;4.53;1.90;;;24.00;59.50;;;;;;5071720;28;20209;-82
2022/09/14 08:47:45;;;;;;;5.35;1.70;;;24.00;57.30;;;;;;5069349;28;20284;-83
2022/09/14 08:50:16;;;;;;;4.10;2.03;;;24.10;56.70;;;;;;5069031;28;20197;-82
2022/09/14 08:52:45;;;;;;;4.20;2.10;;;24.40;53.60;;;;;;5059633;28;20235;-85
2022/09/14 08:55:28;;;;;;;4.18;2.03;;;24.70;50.80;;;;;;5067763;28;20197;-87
2022/09/14 08:58:01;;;;;;;5.80;2.40;;;25.10;50.00;;;;;;5057879;28;20230;-86
2022/09/14 09:00:35;;;;;;;4.57;1.90;;;26.20;40.90;;;;;;5067028;28;20211;-85
2022/09/14 09:03:40;;;;;;;5.05;2.20;;;26.90;37.50;;;;;;5067111;28;20217;-87
2022/09/14 09:06:15;;;;;;;4.25;2.10;;;27.50;33.10;;;;;;5063149;28;20762;-85
2022/09/14 09:08:49;;;;;;;4.68;1.67;;;27.50;30.60;;;;;;5066923;28;20204;-84
2022/09/14 09:11:20;;;;;;;5.00;2.30;;;27.50;30.30;;;;;;5066255;28;20200;-85
2022/09/14 09:13:50;;;;;;;5.47;2.58;;;27.70;30.50;;;;;;5069451;28;20203;-86
2022/09/14 09:16:21;;;;;;;7.30;2.30;;;27.70;28.20;;;;;;5061638;28;20201;-86
2022/09/14 09:18:52;;;;;;;8.10;2.35;;;27.80;28.80;;;;;;5067952;28;20204;-87
2022/09/14 09:21:23;;;;;;;5.70;2.10;;;28.00;27.70;;;;;;5071587;28;20224;-87
2022/09/14 09:23:50;;;;;;;4.72;2.15;;;28.30;27.70;;;;;;5065951;28;20201;-87
2022/09/14 09:26:25;;;;;;;5.47;2.38;;;28.60;26.70;;;;;;5070382;28;20243;-86
2022/09/14 09:28:57;;;;;;;6.78;1.92;;;29.30;24.40;;;;;;5060903;28;20193;-85
2022/09/14 09:31:34;;;;;;;4.20;2.30;;;29.90;23.80;;;;;;5060283;28;20273;-84
2022/09/14 09:34:02;;;;;;;5.88;2.38;;;30.50;21.70;;;;;;5062840;28;20200;-85
2022/09/14 09:36:34;;;;;;;6.38;2.40;;;30.60;21.20;;;;;;5066275;28;20224;-88
2022/09/14 09:39:01;;;;;;;3.42;2.22;;;30.10;20.70;;;;;;5060865;28;20212;-87
2022/09/14 09:41:35;;;;;;;4.45;2.17;;;29.80;21.70;;;;;;5064169;28;20213;-88
2022/09/14 09:44:05;;;;;;;5.45;1.98;;;29.40;22.80;;;;;;5067836;28;20642;-86
2022/09/14 09:46:35;;;;;;;6.55;2.20;;;29.00;21.90;;;;;;5055241;28;20638;-87
2022/09/14 09:49:04;;;;;;;7.20;2.40;;;28.40;24.50;;;;;;5067294;28;20283;-88
2022/09/14 09:51:34;;;;;;;4.65;2.05;;;27.90;26.30;;;;;;5057259;28;20208;-88
2022/09/14 09:54:08;;;;;;;6.15;2.20;;;27.40;28.20;;;;;;5072951;28;20235;-85
2022/09/14 09:56:39;;;;;;;5.22;2.17;;;26.90;28.60;;;;;;5070671;28;20711;-88
2022/09/14 09:59:22;;;;;;;4.90;2.00;;;26.80;31.40;;;;;;5065473;28;20202;-85
2022/09/14 10:01:51;;;;;;;7.43;2.35;;;27.20;30.40;;;;;;5067523;28;20626;-85
2022/09/14 10:04:20;;;;;;;6.60;2.33;;;27.90;27.40;;;;;;5069925;28;20215;-86
2022/09/14 10:06:48;;;;;;;5.70;2.20;;;28.30;26.50;;;;;;5068447;28;20197;-86
2022/09/14 10:09:17;;;;;;;5.03;2.10;;;28.20;24.90;;;;;;5066823;28;20207;-86
2022/09/14 10:11:46;;;;;;;5.95;2.15;;;27.80;25.90;;;;;;5067567;28;20201;-85
2022/09/14 10:14:24;;;;;;;4.63;2.30;;;27.30;28.10;;;;;;5072841;28;20671;-86
2022/09/14 10:16:51;;;;;;;5.30;2.15;;;27.00;28.00;;;;;;5071692;28;20219;-86
2022/09/14 10:19:22;;;;;;;4.63;2.28;;;27.30;28.20;;;;;;5066236;28;20550;-87
2022/09/14 10:22:24;;;;;;;5.40;2.47;;;28.10;27.70;;;;;;5071184;28;20278;-86
2022/09/14 10:24:57;;;;;;;6.10;2.70;;;29.50;22.40;;;;;;5006149;28;20199;-84
2022/09/14 10:27:39;;;;;;;9.80;2.90;;;29.50;23.60;;;;;;5068353;28;20197;-85
2022/09/14 10:30:12;;;;;;;4.70;2.15;;;29.40;23.00;;;;;;5070424;28;20634;-86
2022/09/14 10:32:42;;;;;;;3.78;2.40;;;29.70;22.10;;;;;;5073317;28;20727;-86
2022/09/14 10:35:14;;;;;;;6.25;2.38;;;30.00;21.20;;;;;;5074528;28;20236;-86
2022/09/14 10:37:52;;;;;;;4.35;2.20;;;29.70;21.20;;;;;;5072943;28;20215;-85
2022/09/14 10:40:25;;;;;;;3.65;2.35;;;28.90;22.60;;;;;;5076094;28;20216;-87
2022/09/14 10:43:07;;;;;;;6.57;2.30;;;28.30;23.50;;;;;;5071998;28;20274;-86
2022/09/14 10:45:41;;;;;;;4.30;2.35;;;27.80;27.30;;;;;;5077671;28;20209;-85
2022/09/14 10:48:29;;;;;;;5.03;2.40;;;27.40;29.50;;;;;;5075102;28;20212;-85
2022/09/14 10:51:06;;;;;;;7.53;2.42;;;27.20;30.00;;;;;;5076516;28;20646;-85
2022/09/14 10:53:47;;;;;;;6.90;2.25;;;27.10;30.30;;;;;;5077359;28;20204;-85
2022/09/14 10:56:19;;;;;;;5.95;2.33;;;27.10;31.20;;;;;;5075475;28;20573;-85
2022/09/14 10:59:07;;;;;;;6.72;2.50;;;26.90;30.30;;;;;;5076617;28;20262;-85
2022/09/14 11:01:53;;;;;;;3.55;2.17;;;26.80;32.00;;;;;;5071844;28;20208;-84
2022/09/14 11:04:41;;;;;;;6.78;2.30;;;26.60;35.30;;;;;;5074222;28;20204;-86
2022/09/14 11:07:12;;;;;;;7.55;2.15;;;26.70;34.50;;;;;;5076388;28;20203;-85
2022/09/14 11:09:50;;;;;;;5.43;2.20;;;26.90;35.50;;;;;;5074534;28;20210;-85
2022/09/14 11:12:25;;;;;;;7.53;2.42;;;27.20;34.70;;;;;;5070830;28;20212;-84
2022/09/14 11:15:07;;;;;;;7.15;2.53;;;27.40;30.70;;;;;;5076365;28;20201;-84
2022/09/14 11:17:51;;;;;;;3.10;1.95;;;27.40;30.60;;;;;;5071544;28;20209;-84
2022/09/14 11:20:25;;;;;;;7.07;2.40;;;27.70;29.40;;;;;;5067736;28;20618;-84
2022/09/14 11:23:02;;;;;;;4.63;2.20;;;27.50;28.20;;;;;;5071609;28;20295;-84
2022/09/14 11:25:39;;;;;;;4.50;2.30;;;27.10;29.00;;;;;;5079014;28;20197;-84
2022/09/14 11:28:10;;;;;;;5.85;2.30;;;26.60;30.30;;;;;;5070838;28;20189;-87
2022/09/14 11:30:41;;;;;;;7.32;2.30;;;26.30;32.50;;;;;;5069281;28;20544;-86
2022/09/14 11:33:17;;;;;;;5.05;2.22;;;26.40;32.30;;;;;;5074343;28;20189;-83
2022/09/14 11:35:48;;;;;;;9.68;2.30;;;26.00;31.60;;;;;;5078723;28;20204;-84
2022/09/14 11:38:19;;;;;;;8.68;2.35;;;25.80;32.50;;;;;;5065346;28;20291;-84
2022/09/14 11:40:49;;;;;;;6.18;2.47;;;25.70;35.70;;;;;;5070305;28;20208;-82
2022/09/14 11:43:21;;;;;;;5.40;2.80;;;25.80;33.70;;;;;;5074148;28;20217;-83
2022/09/14 11:45:52;;;;;;;5.40;2.45;;;26.00;35.10;;;;;;5070099;28;20247;-81
2022/09/14 11:48:24;;;;;;;6.43;2.13;;;26.10;32.90;;;;;;5065522;28;20209;-82
2022/09/14 11:50:57;;;;;;;6.55;2.45;;;26.10;32.80;;;;;;5075599;28;20205;-82
2022/09/14 11:53:25;;;;;;;5.70;2.72;;;26.20;32.70;;;;;;5080301;28;20201;-82
2022/09/14 11:55:52;;;;;;;9.27;2.17;;;26.30;32.60;;;;;;5069787;28;20285;-83
2022/09/14 11:58:22;;;;;;;2.60;1.88;;;26.30;33.10;;;;;;5075026;28;20234;-82
2022/09/14 12:01:23;;;;;;;4.78;2.20;;;26.10;33.40;;;;;;5077825;28;20189;-83
2022/09/14 12:04:05;;;;;;;9.23;2.53;;;26.00;33.40;;;;;;5072448;28;20221;-81
2022/09/14 12:06:48;;;;;;;6.88;2.20;;;26.20;32.60;;;;;;5066019;28;20201;-81
2022/09/14 12:09:44;;;;;;;6.15;2.03;;;26.30;35.20;;;;;;5070074;28;20212;-83
2022/09/14 12:12:35;;;;;;;3.47;1.90;;;26.50;32.90;;;;;;5065077;28;20603;-82
2022/09/14 12:15:04;;;;;;;5.25;2.35;;;26.60;33.20;;;;;;5070131;28;20221;-82
2022/09/14 12:17:34;;;;;;;4.32;2.10;;;26.60;32.20;;;;;;5066062;28;20193;-82
2022/09/14 12:20:29;;;;;;;5.70;2.20;;;26.60;32.80;;;;;;5063416;28;20254;-83
2022/09/14 12:23:20;;;;;;;5.38;2.22;;;26.60;33.80;;;;;;5072538;28;20224;-84
2022/09/14 12:26:03;;;;;;;5.75;2.33;;;26.50;32.50;;;;;;5062580;28;20433;-84
2022/09/14 12:28:46;;;;;;;4.93;2.20;;;26.40;33.20;;;;;;5077674;28;20204;-84
2022/09/14 12:31:36;;;;;;;4.53;1.95;;;26.30;33.40;;;;;;5074799;28;20201;-84
2022/09/14 12:34:18;;;;;;;5.13;2.70;;;26.30;33.70;;;;;;5075793;28;20259;-84
2022/09/14 12:37:03;;;;;;;7.00;2.30;;;26.50;32.90;;;;;;5073870;28;20553;-83
2022/09/14 12:39:32;;;;;;;7.35;2.40;;;26.50;31.50;;;;;;5073571;28;20637;-84
2022/09/14 12:42:05;;;;;;;3.35;2.00;;;26.60;32.20;;;;;;5065875;28;20264;-84
2022/09/14 12:44:37;;;;;;;6.68;2.10;;;26.60;30.40;;;;;;5072963;28;20200;-83
2022/09/14 12:47:38;;;;;;;3.75;1.92;;;26.60;30.10;;;;;;5071799;28;20279;-84
2022/09/14 12:50:14;;;;;;;8.00;2.40;;;26.60;30.00;;;;;;4991692;28;20246;-84
2022/09/14 12:52:50;;;;;;;7.47;2.20;;;26.60;29.60;;;;;;4986957;28;20207;-82
2022/09/14 12:55:30;;;;;;;6.10;2.22;;;26.50;29.60;;;;;;4987228;28;20691;-82
2022/09/14 12:58:05;;;;;;;4.53;2.40;;;26.50;30.30;;;;;;4985553;28;20203;-86
2022/09/14 13:00:49;;;;;;;4.18;2.20;;;26.50;30.10;;;;;;4985271;28;20191;-84
2022/09/14 13:03:37;;;;;;;6.13;2.47;;;26.40;30.20;;;;;;4986228;28;20231;-83
2022/09/14 13:06:11;;;;;;;7.82;2.40;;;26.30;31.80;;;;;;4996295;28;20212;-86
2022/09/14 13:08:38;;;;;;;5.20;2.15;;;26.20;30.90;;;;;;4995733;28;20219;-82